createdAt,value
2022-08-19T00:01:59.215Z,68.97
2022-08-19T00:04:37.315Z,69.12
2022-08-19T00:07:07.412Z,69.17
2022-08-19T00:09:36.030Z,69.35
2022-08-19T00:12:04.678Z,69.42
2022-08-19T00:14:33.105Z,69.38
2022-08-19T00:17:02.289Z,69.55
2022-08-19T00:19:31.502Z,69.46
2022-08-19T00:21:59.996Z,69.81
2022-08-19T00:24:29.712Z,69.61
2022-08-19T00:26:58.301Z,69.55
2022-08-19T00:29:46.363Z,69.69
2022-08-19T00:32:21.930Z,69.68
2022-08-19T00:34:50.168Z,69.76
2022-08-19T00:37:18.253Z,69.92
2022-08-19T00:39:46.592Z,69.88
2022-08-19T00:42:18.097Z,70.48
2022-08-19T00:44:47.917Z,70.28
2022-08-19T00:47:16.167Z,70.25
2022-08-19T00:49:52.377Z,70.34
2022-08-19T00:52:49.253Z,70.49
2022-08-19T00:55:23.194Z,70.48
2022-08-19T00:57:56.188Z,70.56
2022-08-19T01:00:26.616Z,70.47
2022-08-19T01:02:55.609Z,70.64
2022-08-19T01:05:28.674Z,70.80
2022-08-19T01:08:00.043Z,70.77
2022-08-19T01:10:36.533Z,70.70
2022-08-19T01:13:07.099Z,70.76
2022-08-19T01:15:42.573Z,71.01
2022-08-19T01:18:13.259Z,71.10
2022-08-19T01:20:43.546Z,71.27
2022-08-19T01:23:13.629Z,71.29
2022-08-19T01:25:53.445Z,71.30
2022-08-19T01:28:39.659Z,71.36
2022-08-19T01:31:27.200Z,71.20
2022-08-19T01:33:57.944Z,71.48
2022-08-19T01:36:31.394Z,71.63
2022-08-19T01:39:01.073Z,71.65
2022-08-19T01:41:29.514Z,71.64
2022-08-19T01:44:03.257Z,71.56
2022-08-19T01:46:45.580Z,71.71
2022-08-19T01:49:13.675Z,71.63
2022-08-19T01:51:41.771Z,71.71
2022-08-19T01:54:13.019Z,71.65
2022-08-19T01:56:41.115Z,71.60
2022-08-19T01:59:18.836Z,71.61
2022-08-19T02:01:47.169Z,71.67
2022-08-19T02:04:15.657Z,71.64
2022-08-19T02:06:43.761Z,71.73
2022-08-19T02:09:12.023Z,71.88
2022-08-19T02:11:40.148Z,71.79
2022-08-19T02:14:09.469Z,71.99
2022-08-19T02:16:38.226Z,71.93
2022-08-19T02:19:06.404Z,72.08
2022-08-19T02:21:35.258Z,72.00
2022-08-19T02:24:03.990Z,72.07
2022-08-19T02:26:33.466Z,72.11
2022-08-19T02:29:01.882Z,72.14
2022-08-19T02:31:30.070Z,72.10
2022-08-19T02:33:59.660Z,72.19
2022-08-19T02:36:28.877Z,72.30
2022-08-19T02:38:58.490Z,72.37
2022-08-19T02:41:29.655Z,72.45
2022-08-19T02:44:26.252Z,72.33
2022-08-19T02:46:49.031Z,72.47
2022-08-19T02:49:20.837Z,72.47
2022-08-19T02:51:49.278Z,72.51
2022-08-19T02:54:17.565Z,72.50
2022-08-19T02:56:46.549Z,72.55
2022-08-19T02:59:14.929Z,72.46
2022-08-19T03:01:43.696Z,72.51
2022-08-19T03:04:16.608Z,72.53
2022-08-19T03:06:47.362Z,72.53
2022-08-19T03:09:16.732Z,72.55
2022-08-19T03:11:44.853Z,72.58
2022-08-19T03:14:14.146Z,72.69
2022-08-19T03:16:49.399Z,72.56
2022-08-19T03:19:36.387Z,72.44
2022-08-19T03:22:05.578Z,72.69
2022-08-19T03:24:33.941Z,72.91
2022-08-19T03:27:02.522Z,72.94
2022-08-19T03:29:32.719Z,72.99
2022-08-19T03:32:04.774Z,72.78
2022-08-19T03:34:35.662Z,72.80
2022-08-19T03:37:10.393Z,72.86
2022-08-19T03:39:40.639Z,72.90
2022-08-19T03:42:32.858Z,72.92
2022-08-19T03:44:59.356Z,72.99
2022-08-19T03:47:27.562Z,73.03
2022-08-19T03:49:55.769Z,73.02
2022-08-19T03:52:23.954Z,72.93
2022-08-19T03:54:52.738Z,72.97
2022-08-19T03:57:20.841Z,73.16
2022-08-19T03:59:52.917Z,73.12
2022-08-19T04:02:21.334Z,73.17
2022-08-19T04:04:49.565Z,73.10
2022-08-19T04:07:19.197Z,73.10
2022-08-19T04:09:47.352Z,73.15
2022-08-19T04:12:16.155Z,73.25
2022-08-19T04:14:44.257Z,73.36
2022-08-19T04:17:14.059Z,73.39
2022-08-19T04:19:44.138Z,73.39
2022-08-19T04:22:12.638Z,73.44
2022-08-19T04:24:40.879Z,73.50
2022-08-19T04:27:09.051Z,73.47
2022-08-19T04:29:40.514Z,73.44
2022-08-19T04:32:09.929Z,73.35
2022-08-19T04:35:02.600Z,73.30
2022-08-19T04:37:35.430Z,73.37
2022-08-19T04:40:25.566Z,73.37
2022-08-19T04:42:55.230Z,73.34
2022-08-19T04:45:24.014Z,73.25
2022-08-19T04:47:58.407Z,73.16
2022-08-19T04:50:45.542Z,73.24
2022-08-19T04:53:13.741Z,73.19
2022-08-19T04:55:42.904Z,73.15
2022-08-19T04:58:11.124Z,73.10
2022-08-19T05:00:41.128Z,73.10
2022-08-19T05:03:09.567Z,73.04
2022-08-19T05:05:44.968Z,72.92
2022-08-19T05:08:19.509Z,72.74
2022-08-19T05:10:59.715Z,72.50
2022-08-19T05:13:28.306Z,72.65
2022-08-19T05:16:00.101Z,72.29
2022-08-19T05:18:47.252Z,71.80
2022-08-19T05:21:36.919Z,71.65
2022-08-19T05:24:09.943Z,71.43
2022-08-19T05:26:43.654Z,70.84
2022-08-19T05:29:11.885Z,70.89
2022-08-19T05:31:41.908Z,70.72
2022-08-19T05:34:20.028Z,69.59
2022-08-19T05:36:51.408Z,69.70
2022-08-19T05:39:22.327Z,69.14
2022-08-19T05:41:55.892Z,68.73
2022-08-19T05:44:32.348Z,69.18
2022-08-19T05:47:03.240Z,68.92
2022-08-19T05:49:33.354Z,68.47
2022-08-19T05:52:07.583Z,68.03
2022-08-19T05:54:39.115Z,68.09
2022-08-19T05:57:08.592Z,68.00
2022-08-19T05:59:39.915Z,67.76
2022-08-19T06:02:08.187Z,67.39
2022-08-19T06:04:36.368Z,66.82
2022-08-19T06:07:12.580Z,66.71
2022-08-19T06:09:43.744Z,66.61
2022-08-19T06:12:35.086Z,65.76
2022-08-19T06:15:11.478Z,64.21
2022-08-19T06:17:39.974Z,64.47
2022-08-19T06:20:13.047Z,62.55
2022-08-19T06:22:43.442Z,62.56
2022-08-19T06:25:13.188Z,61.32
2022-08-19T06:27:58.672Z,61.27
2022-08-19T06:30:30.696Z,61.53
2022-08-19T06:32:59.005Z,61.02
2022-08-19T06:35:28.036Z,60.37
2022-08-19T06:37:56.769Z,60.33
2022-08-19T06:40:25.262Z,60.27
2022-08-19T06:42:55.126Z,60.39
2022-08-19T06:45:24.489Z,57.86
2022-08-19T06:47:57.132Z,58.51
2022-08-19T06:50:25.664Z,58.11
2022-08-19T06:52:55.456Z,58.59
2022-08-19T06:55:24.214Z,57.04
2022-08-19T06:57:54.582Z,57.52
2022-08-19T07:00:23.074Z,58.05
2022-08-19T07:02:55.661Z,58.62
2022-08-19T07:05:25.969Z,57.95
2022-08-19T07:07:54.184Z,57.50
2022-08-19T07:10:26.431Z,57.62
2022-08-19T07:12:55.145Z,57.51
2022-08-19T07:15:24.386Z,57.82
2022-08-19T07:17:52.938Z,57.01
2022-08-19T07:20:21.336Z,56.33
2022-08-19T07:22:49.741Z,56.02
2022-08-19T07:25:19.546Z,55.11
2022-08-19T07:27:54.206Z,54.30
2022-08-19T07:30:26.431Z,54.87
2022-08-19T07:32:54.761Z,54.20
2022-08-19T07:35:23.168Z,54.96
2022-08-19T07:37:51.293Z,54.24
2022-08-19T07:40:19.560Z,54.70
2022-08-19T07:42:47.696Z,54.07
2022-08-19T07:45:17.173Z,53.52
2022-08-19T07:47:49.207Z,52.74
2022-08-19T07:50:20.999Z,52.92
2022-08-19T07:52:50.966Z,52.27
2022-08-19T07:55:40.537Z,51.90
2022-08-19T07:58:17.019Z,51.39
2022-08-19T08:00:46.906Z,51.55
2022-08-19T08:03:18.643Z,51.26
2022-08-19T08:06:06.816Z,51.83
2022-08-19T08:08:44.301Z,51.18
2022-08-19T08:11:20.559Z,51.20
2022-08-19T08:14:00.834Z,50.60
2022-08-19T08:16:33.063Z,50.68
2022-08-19T08:19:14.382Z,49.88
2022-08-19T08:21:50.387Z,50.04
2022-08-19T08:24:19.259Z,50.07
2022-08-19T08:26:52.229Z,49.61
2022-08-19T08:29:34.548Z,49.99
2022-08-19T08:32:14.057Z,49.52
2022-08-19T08:34:44.231Z,49.69
2022-08-19T08:37:12.546Z,49.18
2022-08-19T08:39:44.472Z,48.76
2022-08-19T08:42:37.575Z,48.16
2022-08-19T08:45:16.964Z,48.21
2022-08-19T08:47:51.290Z,47.83
2022-08-19T08:50:28.578Z,46.81
2022-08-19T08:52:59.373Z,47.07
2022-08-19T08:55:36.743Z,47.06
2022-08-19T08:58:25.741Z,47.35
2022-08-19T09:00:53.901Z,47.65
2022-08-19T09:03:26.350Z,46.63
2022-08-19T09:06:12.092Z,46.48
2022-08-19T09:08:44.458Z,44.98
2022-08-19T09:11:42.155Z,44.51
2022-08-19T09:14:47.460Z,42.30
2022-08-19T09:17:10.946Z,44.74
2022-08-19T09:20:11.546Z,44.13
2022-08-19T09:22:44.983Z,44.74
2022-08-19T09:25:24.749Z,44.17
2022-08-19T09:28:02.726Z,44.91
2022-08-19T09:30:35.625Z,44.25
2022-08-19T09:33:03.776Z,44.08
2022-08-19T09:35:32.374Z,43.78
2022-08-19T09:38:18.551Z,43.74
2022-08-19T09:40:46.658Z,43.44
2022-08-19T09:43:15.367Z,42.89
2022-08-19T09:46:03.053Z,42.10
2022-08-19T09:48:31.170Z,41.83
2022-08-19T09:51:12.018Z,41.12
2022-08-19T09:53:40.441Z,40.36
2022-08-19T09:56:09.423Z,41.53
2022-08-19T09:58:38.914Z,41.66
2022-08-19T10:01:08.661Z,41.12
2022-08-19T10:03:37.758Z,41.18
2022-08-19T10:06:14.958Z,40.73
2022-08-19T10:08:50.018Z,41.31
2022-08-19T10:11:28.269Z,41.59
2022-08-19T10:14:08.798Z,40.43
2022-08-19T10:16:39.755Z,40.37
2022-08-19T10:19:08.166Z,40.38
2022-08-19T10:21:37.114Z,40.60
2022-08-19T10:24:06.415Z,40.04
2022-08-19T10:26:39.195Z,39.39
2022-08-19T10:29:09.292Z,40.10
2022-08-19T10:32:00.558Z,38.61
2022-08-19T10:34:28.504Z,39.42
2022-08-19T10:37:01.087Z,39.94
2022-08-19T10:39:32.914Z,40.12
2022-08-19T10:42:12.762Z,40.65
2022-08-19T10:44:42.189Z,40.33
2022-08-19T10:47:21.907Z,39.97
2022-08-19T10:50:15.031Z,39.15
2022-08-19T10:52:49.760Z,39.08
2022-08-19T10:55:41.590Z,39.57
2022-08-19T10:58:15.625Z,39.83
2022-08-19T11:00:44.776Z,39.86
2022-08-19T11:03:13.229Z,40.30
2022-08-19T11:05:41.988Z,39.68
2022-08-19T11:08:23.250Z,39.85
2022-08-19T11:10:58.617Z,40.63
2022-08-19T11:13:26.834Z,40.22
2022-08-19T11:16:09.610Z,39.80
2022-08-19T11:18:44.570Z,40.39
2022-08-19T11:21:25.893Z,40.10
2022-08-19T11:23:58.634Z,39.98
2022-08-19T11:26:27.738Z,39.94
2022-08-19T11:28:56.639Z,39.42
2022-08-19T11:31:29.030Z,39.23
2022-08-19T11:34:00.824Z,39.19
2022-08-19T11:36:29.881Z,39.29
2022-08-19T11:38:58.090Z,39.57
2022-08-19T11:41:27.036Z,39.00
2022-08-19T11:43:56.261Z,39.09
2022-08-19T11:46:26.364Z,38.88
2022-08-19T11:48:55.436Z,38.86
2022-08-19T11:51:25.914Z,37.90
2022-08-19T11:53:57.073Z,38.54
2022-08-19T11:56:26.652Z,38.35
2022-08-19T11:58:57.945Z,38.03
2022-08-19T12:01:27.793Z,38.08
2022-08-19T12:03:57.875Z,38.26
2022-08-19T12:06:31.022Z,38.58
2022-08-19T12:09:01.300Z,38.24
2022-08-19T12:11:34.368Z,38.38
2022-08-19T12:14:02.883Z,37.53
2022-08-19T12:16:33.669Z,38.15
2022-08-19T12:19:05.320Z,38.00
2022-08-19T12:21:36.746Z,38.69
2022-08-19T12:24:07.325Z,38.92
2022-08-19T12:26:53.396Z,39.29
2022-08-19T12:29:29.628Z,38.97
2022-08-19T12:32:03.762Z,38.91
2022-08-19T12:34:33.891Z,39.10
2022-08-19T12:37:05.578Z,39.42
2022-08-19T12:39:40.660Z,38.90
2022-08-19T12:42:10.123Z,38.82
2022-08-19T12:44:41.619Z,38.87
2022-08-19T12:47:12.678Z,39.04
2022-08-19T12:49:53.161Z,39.41
2022-08-19T12:52:26.251Z,39.55
2022-08-19T12:54:57.121Z,39.65
2022-08-19T12:57:32.567Z,39.94
2022-08-19T13:00:14.832Z,39.91
2022-08-19T13:02:46.636Z,40.19
2022-08-19T13:05:18.116Z,40.44
2022-08-19T13:07:46.245Z,40.41
2022-08-19T13:10:18.086Z,40.51
2022-08-19T13:12:49.474Z,40.52
2022-08-19T13:15:23.706Z,40.70
2022-08-19T13:17:54.953Z,40.88
2022-08-19T13:20:23.707Z,40.73
2022-08-19T13:22:52.656Z,40.16
2022-08-19T13:25:21.919Z,40.08
2022-08-19T13:27:51.841Z,40.14
2022-08-19T13:30:39.622Z,39.88
2022-08-19T13:33:11.899Z,39.75
2022-08-19T13:35:48.387Z,39.55
2022-08-19T13:38:22.254Z,38.65
2022-08-19T13:40:53.623Z,39.08
2022-08-19T13:43:24.453Z,38.88
2022-08-19T13:45:56.945Z,39.26
2022-08-19T13:48:27.850Z,38.78
2022-08-19T13:50:56.687Z,38.91
2022-08-19T13:53:25.694Z,38.86
2022-08-19T13:55:55.105Z,39.08
2022-08-19T13:58:23.811Z,39.47
2022-08-19T14:00:52.210Z,39.76
2022-08-19T14:03:20.612Z,39.69
2022-08-19T14:05:48.779Z,39.84
2022-08-19T14:08:17.136Z,39.68
2022-08-19T14:10:46.566Z,39.58
2022-08-19T14:13:18.378Z,39.79
2022-08-19T14:15:48.369Z,39.97
2022-08-19T14:18:19.329Z,39.76
2022-08-19T14:20:47.632Z,39.33
2022-08-19T14:23:16.291Z,39.24
2022-08-19T14:25:45.544Z,39.24
2022-08-19T14:28:14.513Z,39.27
2022-08-19T14:30:42.684Z,39.59
2022-08-19T14:33:10.811Z,39.67
2022-08-19T14:35:39.017Z,39.26
2022-08-19T14:38:15.580Z,39.38
2022-08-19T14:40:43.799Z,39.50
2022-08-19T14:43:12.059Z,39.46
2022-08-19T14:45:41.033Z,39.87
2022-08-19T14:48:19.126Z,39.78
2022-08-19T14:50:47.987Z,39.85
2022-08-19T14:53:17.752Z,40.08
2022-08-19T14:55:47.438Z,40.33
2022-08-19T14:58:29.059Z,40.34
2022-08-19T15:01:02.413Z,40.38
2022-08-19T15:03:32.621Z,40.42
2022-08-19T15:06:02.656Z,40.76
2022-08-19T15:08:32.832Z,40.94
2022-08-19T15:11:00.975Z,40.69
2022-08-19T15:13:31.164Z,40.82
2022-08-19T15:15:59.499Z,40.91
2022-08-19T15:18:27.666Z,41.34
2022-08-19T15:20:56.216Z,41.19
2022-08-19T15:23:24.569Z,41.10
2022-08-19T15:25:56.591Z,41.03
2022-08-19T15:28:27.260Z,41.05
2022-08-19T15:30:55.432Z,41.06
2022-08-19T15:33:23.995Z,41.16
2022-08-19T15:35:52.204Z,40.87
2022-08-19T15:38:22.434Z,40.56
2022-08-19T15:40:51.308Z,40.78
2022-08-19T15:43:22.338Z,40.74
2022-08-19T15:45:50.528Z,41.11
2022-08-19T15:48:18.659Z,41.04
2022-08-19T15:50:46.766Z,41.17
2022-08-19T15:53:14.894Z,41.48
2022-08-19T15:55:45.788Z,41.79
2022-08-19T15:58:34.011Z,41.92
2022-08-19T16:01:24.392Z,42.22
2022-08-19T16:04:16.281Z,42.28
2022-08-19T16:06:51.305Z,42.74
2022-08-19T16:09:27.054Z,43.20
2022-08-19T16:12:01.815Z,43.42
2022-08-19T16:14:36.108Z,43.72
2022-08-19T16:17:04.531Z,44.21
2022-08-19T16:19:33.403Z,44.54
2022-08-19T16:22:01.474Z,44.71
2022-08-19T16:24:30.006Z,44.91
2022-08-19T16:26:58.085Z,45.33
2022-08-19T16:29:34.761Z,45.18
2022-08-19T16:32:11.512Z,45.39
2022-08-19T16:34:41.554Z,45.68
2022-08-19T16:37:10.249Z,45.72
2022-08-19T16:39:39.411Z,45.97
2022-08-19T16:42:08.971Z,46.14
2022-08-19T16:44:41.179Z,46.39
2022-08-19T16:47:11.160Z,46.53
2022-08-19T16:49:54.437Z,46.63
2022-08-19T16:52:27.226Z,46.78
2022-08-19T16:54:55.570Z,46.87
2022-08-19T16:57:24.037Z,47.09
2022-08-19T16:59:52.472Z,47.22
2022-08-19T17:02:23.589Z,47.44
2022-08-19T17:04:59.262Z,47.65
2022-08-19T17:07:33.182Z,47.70
2022-08-19T17:10:05.119Z,47.82
2022-08-19T17:12:33.285Z,47.86
2022-08-19T17:15:04.520Z,48.18
2022-08-19T17:17:32.637Z,48.27
2022-08-19T17:20:03.015Z,48.23
2022-08-19T17:22:31.169Z,48.50
2022-08-19T17:24:59.395Z,48.53
2022-08-19T17:27:32.473Z,48.62
2022-08-19T17:30:02.957Z,48.71
2022-08-19T17:32:35.361Z,48.75
2022-08-19T17:35:04.891Z,48.71
2022-08-19T17:37:34.300Z,48.86
2022-08-19T17:40:06.509Z,48.93
2022-08-19T17:42:36.748Z,49.01
2022-08-19T17:45:05.618Z,49.21
2022-08-19T17:47:36.732Z,49.31
2022-08-19T17:50:07.313Z,49.29
2022-08-19T17:52:37.493Z,49.38
2022-08-19T17:55:07.340Z,49.67
2022-08-19T17:57:36.510Z,49.64
2022-08-19T18:00:09.338Z,49.99
2022-08-19T18:02:53.840Z,49.95
2022-08-19T18:05:29.577Z,50.19
2022-08-19T18:08:00.008Z,50.28
2022-08-19T18:10:34.895Z,50.29
2022-08-19T18:13:17.355Z,50.41
2022-08-19T18:15:47.476Z,50.56
2022-08-19T18:18:15.765Z,50.57
2022-08-19T18:20:45.177Z,50.55
2022-08-19T18:23:43.910Z,50.59
2022-08-19T18:26:02.325Z,50.58
2022-08-19T18:28:30.857Z,50.74
2022-08-19T18:30:59.234Z,50.69
2022-08-19T18:33:27.604Z,50.88
2022-08-19T18:35:56.340Z,51.16
2022-08-19T18:38:43.358Z,51.04
2022-08-19T18:41:30.057Z,51.12
2022-08-19T18:44:17.144Z,51.13
2022-08-19T18:47:04.263Z,51.28
2022-08-19T18:49:33.755Z,51.48
2022-08-19T18:52:03.761Z,51.50
2022-08-19T18:54:32.611Z,51.67
2022-08-19T18:57:00.728Z,51.76
2022-08-19T18:59:32.521Z,52.32
2022-08-19T19:02:01.568Z,52.74
2022-08-19T19:04:35.873Z,53.39
2022-08-19T19:07:09.256Z,53.82
2022-08-19T19:09:38.559Z,54.29
2022-08-19T19:12:11.266Z,55.23
2022-08-19T19:14:49.907Z,55.60
2022-08-19T19:17:18.744Z,56.12
2022-08-19T19:19:46.813Z,56.93
2022-08-19T19:22:18.919Z,57.06
2022-08-19T19:24:46.982Z,57.63
2022-08-19T19:27:18.637Z,57.55
2022-08-19T19:29:52.018Z,58.80
2022-08-19T19:32:24.611Z,58.43
2022-08-19T19:34:53.431Z,59.16
2022-08-19T19:37:22.619Z,59.54
2022-08-19T19:39:51.030Z,59.61
2022-08-19T19:42:22.817Z,59.96
2022-08-19T19:44:57.589Z,59.99
2022-08-19T19:47:28.179Z,60.83
2022-08-19T19:52:46.443Z,61.01
2022-08-19T19:55:18.452Z,60.99
2022-08-19T19:57:50.718Z,61.21
2022-08-19T20:00:20.267Z,61.55
2022-08-19T20:02:50.878Z,61.90
2022-08-19T20:05:21.725Z,61.80
2022-08-19T20:08:10.792Z,62.34
2022-08-19T20:10:40.319Z,62.76
2022-08-19T20:13:10.022Z,62.79
2022-08-19T20:15:42.558Z,62.71
2022-08-19T20:18:14.422Z,62.96
2022-08-19T20:20:43.696Z,63.65
2022-08-19T20:23:12.145Z,63.80
2022-08-19T20:25:40.288Z,64.06
2022-08-19T20:28:08.755Z,64.11
2022-08-19T20:30:37.750Z,64.51
2022-08-19T20:33:08.386Z,64.35
2022-08-19T20:35:37.406Z,64.74
2022-08-19T20:38:08.727Z,64.67
2022-08-19T20:40:38.476Z,64.69
2022-08-19T20:43:12.740Z,64.72
2022-08-19T20:45:41.207Z,64.70
2022-08-19T20:48:12.286Z,65.12
2022-08-19T20:50:41.013Z,65.30
2022-08-19T20:53:20.752Z,65.32
2022-08-19T20:55:50.011Z,65.43
2022-08-19T20:58:21.301Z,65.53
2022-08-19T21:00:51.059Z,65.96
2022-08-19T21:03:23.101Z,65.85
2022-08-19T21:05:51.246Z,65.95
2022-08-19T21:08:19.458Z,66.07
2022-08-19T21:10:49.647Z,66.67
2022-08-19T21:13:20.059Z,66.91
2022-08-19T21:15:48.893Z,66.79
2022-08-19T21:18:19.247Z,67.06
2022-08-19T21:20:49.386Z,67.33
2022-08-19T21:23:21.192Z,67.26
2022-08-19T21:25:54.660Z,67.61
2022-08-19T21:28:34.981Z,67.91
2022-08-19T21:31:10.635Z,67.95
2022-08-19T21:33:39.032Z,68.07
2022-08-19T21:36:07.641Z,68.60
2022-08-19T21:38:37.879Z,69.10
2022-08-19T21:41:07.120Z,68.97
2022-08-19T21:43:38.200Z,69.07
2022-08-19T21:46:07.662Z,68.84
2022-08-19T21:48:36.365Z,68.88
2022-08-19T21:51:04.557Z,69.22
2022-08-19T21:53:34.469Z,68.89
2022-08-19T21:56:07.327Z,68.97
2022-08-19T21:58:39.125Z,69.02
2022-08-19T22:01:08.188Z,68.86
2022-08-19T22:03:38.014Z,68.56
2022-08-19T22:06:07.307Z,68.41
2022-08-19T22:08:37.100Z,68.43
2022-08-19T22:11:05.261Z,68.47
2022-08-19T22:13:39.917Z,68.59
2022-08-19T22:16:10.050Z,68.37
2022-08-19T22:18:38.652Z,68.49
2022-08-19T22:21:11.355Z,68.58
2022-08-19T22:23:42.043Z,68.88
2022-08-19T22:26:11.961Z,69.01
2022-08-19T22:28:41.630Z,69.24
2022-08-19T22:31:11.397Z,69.55
2022-08-19T22:33:40.735Z,69.72
2022-08-19T22:36:08.941Z,70.19
2022-08-19T22:38:38.341Z,70.13
2022-08-19T22:41:07.986Z,70.26
2022-08-19T22:43:37.614Z,70.33
2022-08-19T22:46:17.389Z,70.48
2022-08-19T22:48:47.481Z,70.65
2022-08-19T22:51:35.006Z,70.70
2022-08-19T22:54:04.066Z,70.89
2022-08-19T22:56:32.176Z,70.90
2022-08-19T22:59:00.927Z,71.21
2022-08-19T23:01:30.267Z,71.26
2022-08-19T23:03:59.724Z,71.18
2022-08-19T23:06:33.833Z,71.50
2022-08-19T23:09:05.179Z,71.49
2022-08-19T23:11:41.753Z,71.74
2022-08-19T23:14:12.729Z,71.66
2022-08-19T23:16:42.021Z,71.76
2022-08-19T23:19:10.647Z,71.83
2022-08-19T23:21:40.654Z,72.02
2022-08-19T23:24:10.319Z,72.20
2022-08-19T23:26:59.221Z,72.27
2022-08-19T23:29:47.314Z,72.49
2022-08-19T23:32:18.897Z,72.74
2022-08-19T23:34:47.473Z,72.90
2022-08-19T23:37:15.621Z,73.19
2022-08-19T23:39:45.187Z,73.02
2022-08-19T23:42:13.749Z,72.70
2022-08-19T23:44:51.568Z,72.60
2022-08-19T23:47:21.435Z,72.46
2022-08-19T23:49:50.734Z,72.48
2022-08-19T23:52:19.370Z,72.53
2022-08-19T23:54:47.535Z,72.60
2022-08-19T23:57:15.786Z,72.61
2022-08-19T23:59:45.610Z,72.53
